sensor_id;sensor_type;location;lat;lon;timestamp;pressure;altitude;pressure_sealevel;temperature;humidity
46778;BME280;32536;47.128;8.746;2023-10-19T00:00:20;90336.84;;;16.59;50.29
46778;BME280;32536;47.128;8.746;2023-10-19T00:02:50;90335.56;;;16.55;51.06
46778;BME280;32536;47.128;8.746;2023-10-19T00:05:17;90331.84;;;16.52;50.42
46778;BME280;32536;47.128;8.746;2023-10-19T00:07:45;90326.16;;;16.50;50.11
46778;BME280;32536;47.128;8.746;2023-10-19T00:10:12;90329.81;;;16.47;50.31
46778;BME280;32536;47.128;8.746;2023-10-19T00:12:42;90326.09;;;16.44;50.04
46778;BME280;32536;47.128;8.746;2023-10-19T00:15:10;90334.22;;;16.44;50.19
46778;BME280;32536;47.128;8.746;2023-10-19T00:17:38;90334.66;;;16.43;50.33
46778;BME280;32536;47.128;8.746;2023-10-19T00:20:06;90314.28;;;16.42;50.03
46778;BME280;32536;47.128;8.746;2023-10-19T00:22:52;90311.59;;;16.42;50.25
46778;BME280;32536;47.128;8.746;2023-10-19T00:25:19;90317.72;;;16.42;50.21
46778;BME280;32536;47.128;8.746;2023-10-19T00:27:49;90311.59;;;16.42;50.44
46778;BME280;32536;47.128;8.746;2023-10-19T00:30:16;90307.19;;;16.44;50.03
46778;BME280;32536;47.128;8.746;2023-10-19T00:32:46;90315.28;;;16.44;50.55
46778;BME280;32536;47.128;8.746;2023-10-19T00:35:13;90313.03;;;16.43;50.26
46778;BME280;32536;47.128;8.746;2023-10-19T00:37:54;90322.13;;;16.40;50.44
46778;BME280;32536;47.128;8.746;2023-10-19T00:40:31;90318.41;;;16.37;50.54
46778;BME280;32536;47.128;8.746;2023-10-19T00:43:04;90309.94;;;16.29;51.02
46778;BME280;32536;47.128;8.746;2023-10-19T00:45:35;90307.72;;;16.28;50.30
46778;BME280;32536;47.128;8.746;2023-10-19T00:48:08;90313.59;;;16.26;50.61
46778;BME280;32536;47.128;8.746;2023-10-19T00:50:36;90310.69;;;16.30;51.21
46778;BME280;32536;47.128;8.746;2023-10-19T00:53:04;90305.28;;;16.30;50.06
46778;BME280;32536;47.128;8.746;2023-10-19T00:55:34;90299.59;;;16.28;50.61
46778;BME280;32536;47.128;8.746;2023-10-19T00:58:01;90297.09;;;16.24;50.75
46778;BME280;32536;47.128;8.746;2023-10-19T01:00:36;90299.56;;;16.22;50.39
46778;BME280;32536;47.128;8.746;2023-10-19T01:03:11;90295.91;;;16.25;50.37
46778;BME280;32536;47.128;8.746;2023-10-19T01:05:43;90291.97;;;16.26;50.32
46778;BME280;32536;47.128;8.746;2023-10-19T01:08:14;90289.56;;;16.28;50.62
46778;BME280;32536;47.128;8.746;2023-10-19T01:10:52;90295.22;;;16.30;50.49
46778;BME280;32536;47.128;8.746;2023-10-19T01:13:19;90299.69;;;16.33;50.51
46778;BME280;32536;47.128;8.746;2023-10-19T01:15:53;90294.81;;;16.38;50.51
46778;BME280;32536;47.128;8.746;2023-10-19T01:18:21;90296.31;;;16.39;50.60
46778;BME280;32536;47.128;8.746;2023-10-19T01:20:48;90288.19;;;16.39;50.37
46778;BME280;32536;47.128;8.746;2023-10-19T01:23:20;90289.41;;;16.38;50.45
46778;BME280;32536;47.128;8.746;2023-10-19T01:25:58;90288.59;;;16.31;50.99
46778;BME280;32536;47.128;8.746;2023-10-19T01:28:31;90274.06;;;16.29;51.07
46778;BME280;32536;47.128;8.746;2023-10-19T01:31:05;90267.75;;;16.32;50.59
46778;BME280;32536;47.128;8.746;2023-10-19T01:33:32;90264.56;;;16.33;50.92
46778;BME280;32536;47.128;8.746;2023-10-19T01:36:02;90271.69;;;16.37;50.76
46778;BME280;32536;47.128;8.746;2023-10-19T01:38:40;90274.00;;;16.44;50.96
46778;BME280;32536;47.128;8.746;2023-10-19T01:41:09;90260.97;;;16.42;50.56
46778;BME280;32536;47.128;8.746;2023-10-19T01:43:46;90268.34;;;16.42;50.45
46778;BME280;32536;47.128;8.746;2023-10-19T01:46:30;90263.19;;;16.44;50.86
46778;BME280;32536;47.128;8.746;2023-10-19T01:49:01;90262.72;;;16.45;50.83
46778;BME280;32536;47.128;8.746;2023-10-19T01:51:32;90251.16;;;16.45;50.75
46778;BME280;32536;47.128;8.746;2023-10-19T01:53:59;90248.72;;;16.47;50.68
46778;BME280;32536;47.128;8.746;2023-10-19T01:56:26;90260.84;;;16.52;50.76
46778;BME280;32536;47.128;8.746;2023-10-19T01:58:54;90256.69;;;16.56;50.64
46778;BME280;32536;47.128;8.746;2023-10-19T02:01:21;90251.81;;;16.60;50.67
46778;BME280;32536;47.128;8.746;2023-10-19T02:03:55;90253.31;;;16.61;50.61
46778;BME280;32536;47.128;8.746;2023-10-19T02:06:28;90250.59;;;16.61;50.80
46778;BME280;32536;47.128;8.746;2023-10-19T02:09:07;90252.56;;;16.61;50.81
46778;BME280;32536;47.128;8.746;2023-10-19T02:11:57;90244.00;;;16.62;51.04
46778;BME280;32536;47.128;8.746;2023-10-19T02:14:26;90238.31;;;16.60;50.37
46778;BME280;32536;47.128;8.746;2023-10-19T02:16:57;90236.81;;;16.59;50.58
46778;BME280;32536;47.128;8.746;2023-10-19T02:19:26;90241.69;;;16.55;50.47
46778;BME280;32536;47.128;8.746;2023-10-19T02:22:03;90236.03;;;16.53;51.13
46778;BME280;32536;47.128;8.746;2023-10-19T02:24:33;90226.69;;;16.54;50.47
46778;BME280;32536;47.128;8.746;2023-10-19T02:27:20;90226.16;;;16.50;50.44
46778;BME280;32536;47.128;8.746;2023-10-19T02:33:19;90229.47;;;16.39;50.49
46778;BME280;32536;47.128;8.746;2023-10-19T02:35:46;90227.72;;;16.36;50.58
46778;BME280;32536;47.128;8.746;2023-10-19T02:38:13;90231.16;;;16.37;50.86
46778;BME280;32536;47.128;8.746;2023-10-19T02:40:40;90228.00;;;16.38;50.85
46778;BME280;32536;47.128;8.746;2023-10-19T02:43:07;90225.81;;;16.42;50.91
46778;BME280;32536;47.128;8.746;2023-10-19T02:45:34;90222.44;;;16.47;50.68
46778;BME280;32536;47.128;8.746;2023-10-19T02:48:01;90218.03;;;16.50;50.78
46778;BME280;32536;47.128;8.746;2023-10-19T02:50:29;90220.28;;;16.52;51.09
46778;BME280;32536;47.128;8.746;2023-10-19T02:52:56;90229.41;;;16.54;50.78
46778;BME280;32536;47.128;8.746;2023-10-19T02:55:23;90222.78;;;16.55;50.75
46778;BME280;32536;47.128;8.746;2023-10-19T02:57:51;90234.13;;;16.59;50.63
46778;BME280;32536;47.128;8.746;2023-10-19T03:00:18;90225.06;;;16.62;50.74
46778;BME280;32536;47.128;8.746;2023-10-19T03:02:49;90222.34;;;16.62;50.77
46778;BME280;32536;47.128;8.746;2023-10-19T03:05:17;90224.56;;;16.64;50.59
46778;BME280;32536;47.128;8.746;2023-10-19T03:07:44;90227.53;;;16.66;50.81
46778;BME280;32536;47.128;8.746;2023-10-19T03:10:11;90227.06;;;16.68;50.40
46778;BME280;32536;47.128;8.746;2023-10-19T03:12:50;90224.09;;;16.65;50.69
46778;BME280;32536;47.128;8.746;2023-10-19T03:15:17;90223.81;;;16.63;50.60
46778;BME280;32536;47.128;8.746;2023-10-19T03:17:46;90233.63;;;16.61;50.64
46778;BME280;32536;47.128;8.746;2023-10-19T03:20:15;90221.81;;;16.58;50.70
46778;BME280;32536;47.128;8.746;2023-10-19T03:22:49;90226.94;;;16.56;50.72
46778;BME280;32536;47.128;8.746;2023-10-19T03:25:16;90223.22;;;16.54;50.75
46778;BME280;32536;47.128;8.746;2023-10-19T03:28:04;90218.59;;;16.54;51.11
46778;BME280;32536;47.128;8.746;2023-10-19T03:30:42;90208.50;;;16.55;50.93
46778;BME280;32536;47.128;8.746;2023-10-19T03:33:09;90208.22;;;16.53;51.07
46778;BME280;32536;47.128;8.746;2023-10-19T03:35:37;90196.69;;;16.52;51.11
46778;BME280;32536;47.128;8.746;2023-10-19T03:38:08;90206.56;;;16.55;50.95
46778;BME280;32536;47.128;8.746;2023-10-19T03:40:41;90202.63;;;16.56;51.05
46778;BME280;32536;47.128;8.746;2023-10-19T03:43:12;90203.88;;;16.61;50.93
46778;BME280;32536;47.128;8.746;2023-10-19T03:45:47;90205.38;;;16.62;50.77
46778;BME280;32536;47.128;8.746;2023-10-19T03:48:21;90204.16;;;16.63;51.08
46778;BME280;32536;47.128;8.746;2023-10-19T03:51:00;90198.28;;;16.64;50.65
46778;BME280;32536;47.128;8.746;2023-10-19T03:53:28;90202.47;;;16.65;50.46
46778;BME280;32536;47.128;8.746;2023-10-19T03:55:56;90194.63;;;16.68;50.52
46778;BME280;32536;47.128;8.746;2023-10-19T03:58:23;90198.53;;;16.67;50.76
46778;BME280;32536;47.128;8.746;2023-10-19T04:00:50;90192.38;;;16.66;50.57
46778;BME280;32536;47.128;8.746;2023-10-19T04:03:17;90194.63;;;16.68;50.59
46778;BME280;32536;47.128;8.746;2023-10-19T04:05:44;90195.34;;;16.68;50.54
46778;BME280;32536;47.128;8.746;2023-10-19T04:08:15;90190.91;;;16.65;50.56
46778;BME280;32536;47.128;8.746;2023-10-19T04:10:46;90195.31;;;16.62;51.52
46778;BME280;32536;47.128;8.746;2023-10-19T04:13:33;90185.94;;;16.58;50.22
46778;BME280;32536;47.128;8.746;2023-10-19T04:16:02;90188.38;;;16.56;50.38
46778;BME280;32536;47.128;8.746;2023-10-19T04:18:29;90188.38;;;16.56;50.58
46778;BME280;32536;47.128;8.746;2023-10-19T04:20:56;90179.97;;;16.54;50.28
46778;BME280;32536;47.128;8.746;2023-10-19T04:23:24;90175.78;;;16.53;50.28
46778;BME280;32536;47.128;8.746;2023-10-19T04:25:56;90178.03;;;16.54;50.98
46778;BME280;32536;47.128;8.746;2023-10-19T04:28:23;90162.34;;;16.58;50.38
46778;BME280;32536;47.128;8.746;2023-10-19T04:30:57;90168.75;;;16.61;50.61
46778;BME280;32536;47.128;8.746;2023-10-19T04:33:30;90165.81;;;16.59;50.64
46778;BME280;32536;47.128;8.746;2023-10-19T04:35:57;90160.13;;;16.57;50.56
46778;BME280;32536;47.128;8.746;2023-10-19T04:38:29;90166.00;;;16.55;51.09
46778;BME280;32536;47.128;8.746;2023-10-19T04:41:06;90165.47;;;16.51;51.06
46778;BME280;32536;47.128;8.746;2023-10-19T04:43:37;90157.34;;;16.51;50.78
46778;BME280;32536;47.128;8.746;2023-10-19T04:46:39;90156.84;;;16.47;51.11
46778;BME280;32536;47.128;8.746;2023-10-19T04:49:05;90157.84;;;16.49;50.71
46778;BME280;32536;47.128;8.746;2023-10-19T04:51:32;90148.53;;;16.51;51.06
46778;BME280;32536;47.128;8.746;2023-10-19T04:54:02;90147.31;;;16.52;50.79
46778;BME280;32536;47.128;8.746;2023-10-19T04:56:28;90148.03;;;16.52;50.82
46778;BME280;32536;47.128;8.746;2023-10-19T04:58:55;90139.66;;;16.50;51.07
46778;BME280;32536;47.128;8.746;2023-10-19T05:01:22;90141.63;;;16.49;51.00
46778;BME280;32536;47.128;8.746;2023-10-19T05:03:48;90141.91;;;16.52;51.21
46778;BME280;32536;47.128;8.746;2023-10-19T05:06:15;90133.78;;;16.52;51.16
46778;BME280;32536;47.128;8.746;2023-10-19T05:08:42;90132.09;;;16.54;50.86
46778;BME280;32536;47.128;8.746;2023-10-19T05:11:09;90141.19;;;16.57;51.05
46778;BME280;32536;47.128;8.746;2023-10-19T05:13:35;90124.22;;;16.56;50.93
46778;BME280;32536;47.128;8.746;2023-10-19T05:16:02;90127.19;;;16.58;50.90
46778;BME280;32536;47.128;8.746;2023-10-19T05:18:29;90118.13;;;16.61;50.64
46778;BME280;32536;47.128;8.746;2023-10-19T05:20:55;90117.38;;;16.61;50.96
46778;BME280;32536;47.128;8.746;2023-10-19T05:23:27;90111.25;;;16.60;51.01
46778;BME280;32536;47.128;8.746;2023-10-19T05:26:00;90111.97;;;16.61;51.23
46778;BME280;32536;47.128;8.746;2023-10-19T05:28:28;90101.91;;;16.61;50.82
46778;BME280;32536;47.128;8.746;2023-10-19T05:30:55;90098.47;;;16.61;50.83
46778;BME280;32536;47.128;8.746;2023-10-19T05:33:22;90093.81;;;16.61;50.80
46778;BME280;32536;47.128;8.746;2023-10-19T05:35:50;90082.50;;;16.63;51.06
46778;BME280;32536;47.128;8.746;2023-10-19T05:38:17;90089.63;;;16.66;51.05
46778;BME280;32536;47.128;8.746;2023-10-19T05:40:48;90076.13;;;16.66;51.00
46778;BME280;32536;47.128;8.746;2023-10-19T05:43:15;90069.25;;;16.65;50.83
46778;BME280;32536;47.128;8.746;2023-10-19T05:45:43;90073.66;;;16.62;50.98
46778;BME280;32536;47.128;8.746;2023-10-19T05:48:10;90067.50;;;16.62;51.15
46778;BME280;32536;47.128;8.746;2023-10-19T05:50:37;90070.44;;;16.58;51.28
46778;BME280;32536;47.128;8.746;2023-10-19T05:53:04;90068.44;;;16.53;50.88
46778;BME280;32536;47.128;8.746;2023-10-19T05:55:31;90068.44;;;16.53;50.95
46778;BME280;32536;47.128;8.746;2023-10-19T05:57:58;90060.31;;;16.53;50.76
46778;BME280;32536;47.128;8.746;2023-10-19T06:00:26;90063.03;;;16.53;50.70
46778;BME280;32536;47.128;8.746;2023-10-19T06:02:53;90058.34;;;16.54;50.84
46778;BME280;32536;47.128;8.746;2023-10-19T06:05:19;90059.09;;;16.54;50.98
46778;BME280;32536;47.128;8.746;2023-10-19T06:07:48;90061.03;;;16.54;50.67
46778;BME280;32536;47.128;8.746;2023-10-19T06:10:17;90054.91;;;16.53;50.66
46778;BME280;32536;47.128;8.746;2023-10-19T06:12:47;90052.22;;;16.53;50.52
46778;BME280;32536;47.128;8.746;2023-10-19T06:15:17;90057.34;;;16.51;51.05
46778;BME280;32536;47.128;8.746;2023-10-19T06:17:46;90058.78;;;16.46;50.68
46778;BME280;32536;47.128;8.746;2023-10-19T06:20:14;90051.44;;;16.47;50.63
46778;BME280;32536;47.128;8.746;2023-10-19T06:22:53;90053.13;;;16.44;50.90
46778;BME280;32536;47.128;8.746;2023-10-19T06:25:23;90055.84;;;16.44;50.80
46778;BME280;32536;47.128;8.746;2023-10-19T06:27:51;90052.13;;;16.42;50.87
46778;BME280;32536;47.128;8.746;2023-10-19T06:30:23;90054.56;;;16.40;50.79
46778;BME280;32536;47.128;8.746;2023-10-19T06:32:52;90066.09;;;16.40;50.94
46778;BME280;32536;47.128;8.746;2023-10-19T06:35:20;90057.53;;;16.42;50.73
46778;BME280;32536;47.128;8.746;2023-10-19T06:37:48;90052.13;;;16.42;50.77
46778;BME280;32536;47.128;8.746;2023-10-19T06:40:16;90059.75;;;16.43;50.51
46778;BME280;32536;47.128;8.746;2023-10-19T06:42:44;90056.84;;;16.47;50.89
46778;BME280;32536;47.128;8.746;2023-10-19T06:45:12;90053.38;;;16.46;50.87
46778;BME280;32536;47.128;8.746;2023-10-19T06:47:43;90045.75;;;16.45;51.05
46778;BME280;32536;47.128;8.746;2023-10-19T06:50:15;90051.44;;;16.47;51.16
46778;BME280;32536;47.128;8.746;2023-10-19T06:52:44;90050.47;;;16.50;50.82
46778;BME280;32536;47.128;8.746;2023-10-19T06:55:13;90044.09;;;16.53;50.91
46778;BME280;32536;47.128;8.746;2023-10-19T06:57:43;90049.78;;;16.55;50.97
46778;BME280;32536;47.128;8.746;2023-10-19T07:00:15;90045.59;;;16.54;51.20
46778;BME280;32536;47.128;8.746;2023-10-19T07:02:47;90048.03;;;16.52;51.01
46778;BME280;32536;47.128;8.746;2023-10-19T07:05:16;90046.28;;;16.49;51.07
46778;BME280;32536;47.128;8.746;2023-10-19T07:07:44;90054.41;;;16.49;51.14
46778;BME280;32536;47.128;8.746;2023-10-19T07:10:13;90052.94;;;16.54;51.33
46778;BME280;32536;47.128;8.746;2023-10-19T07:12:42;90052.47;;;16.55;51.20
46778;BME280;32536;47.128;8.746;2023-10-19T07:15:12;90045.38;;;16.58;51.10
46778;BME280;32536;47.128;8.746;2023-10-19T07:17:43;90047.84;;;16.61;51.21
46778;BME280;32536;47.128;8.746;2023-10-19T07:20:12;90050.78;;;16.63;51.31
46778;BME280;32536;47.128;8.746;2023-10-19T07:22:54;90044.94;;;16.65;50.96
46778;BME280;32536;47.128;8.746;2023-10-19T07:25:22;90049.34;;;16.68;51.67
46778;BME280;32536;47.128;8.746;2023-10-19T07:27:52;90053.53;;;16.69;50.80
46778;BME280;32536;47.128;8.746;2023-10-19T07:30:20;90058.94;;;16.69;50.85
46778;BME280;32536;47.128;8.746;2023-10-19T07:32:50;90053.06;;;16.71;51.24
46778;BME280;32536;47.128;8.746;2023-10-19T07:35:21;90039.31;;;16.74;50.99
46778;BME280;32536;47.128;8.746;2023-10-19T07:37:48;90047.75;;;16.82;50.98
46778;BME280;32536;47.128;8.746;2023-10-19T07:40:16;90044.06;;;16.85;51.08
46778;BME280;32536;47.128;8.746;2023-10-19T07:42:47;90031.78;;;16.90;50.75
46778;BME280;32536;47.128;8.746;2023-10-19T07:45:15;90026.88;;;16.88;50.70
46778;BME280;32536;47.128;8.746;2023-10-19T07:47:42;90026.88;;;16.88;51.26
46778;BME280;32536;47.128;8.746;2023-10-19T07:50:11;90020.22;;;16.89;51.26
46778;BME280;32536;47.128;8.746;2023-10-19T07:52:42;90027.69;;;16.94;51.20
46778;BME280;32536;47.128;8.746;2023-10-19T07:55:10;90038.50;;;17.00;50.91
46778;BME280;32536;47.128;8.746;2023-10-19T07:57:37;90028.94;;;17.05;51.09
46778;BME280;32536;47.128;8.746;2023-10-19T08:00:07;90021.59;;;17.05;51.05
46778;BME280;32536;47.128;8.746;2023-10-19T08:02:36;90011.75;;;17.08;51.18
46778;BME280;32536;47.128;8.746;2023-10-19T08:05:14;90005.88;;;17.15;50.70
46778;BME280;32536;47.128;8.746;2023-10-19T08:07:41;89998.03;;;17.23;50.86
46778;BME280;32536;47.128;8.746;2023-10-19T08:10:09;89996.09;;;17.29;50.76
46778;BME280;32536;47.128;8.746;2023-10-19T08:12:38;90004.25;;;17.35;50.72
46778;BME280;32536;47.128;8.746;2023-10-19T08:15:12;90001.31;;;17.38;50.79
46778;BME280;32536;47.128;8.746;2023-10-19T08:17:42;90002.28;;;17.41;50.91
46778;BME280;32536;47.128;8.746;2023-10-19T08:20:14;89985.78;;;17.39;50.78
46778;BME280;32536;47.128;8.746;2023-10-19T08:22:58;89992.44;;;17.38;51.19
46778;BME280;32536;47.128;8.746;2023-10-19T08:25:27;89985.28;;;17.40;50.81
46778;BME280;32536;47.128;8.746;2023-10-19T08:27:54;89993.19;;;17.44;50.82
46778;BME280;32536;47.128;8.746;2023-10-19T08:30:24;89991.47;;;17.47;50.87
46778;BME280;32536;47.128;8.746;2023-10-19T08:32:51;89982.38;;;17.50;50.97
46778;BME280;32536;47.128;8.746;2023-10-19T08:35:20;89981.88;;;17.51;50.98
46778;BME280;32536;47.128;8.746;2023-10-19T08:37:54;89993.47;;;17.52;50.99
46778;BME280;32536;47.128;8.746;2023-10-19T08:40:25;89981.88;;;17.51;51.24
46778;BME280;32536;47.128;8.746;2023-10-19T08:42:53;89969.56;;;17.50;51.05
46778;BME280;32536;47.128;8.746;2023-10-19T08:45:20;89976.72;;;17.53;50.98
46778;BME280;32536;47.128;8.746;2023-10-19T08:47:54;89972.53;;;17.52;51.33
46778;BME280;32536;47.128;8.746;2023-10-19T08:50:34;89971.81;;;17.52;51.04
46778;BME280;32536;47.128;8.746;2023-10-19T08:53:02;89967.13;;;17.52;50.99
46778;BME280;32536;47.128;8.746;2023-10-19T08:55:31;89961.22;;;17.54;51.22
46778;BME280;32536;47.128;8.746;2023-10-19T08:58:00;89954.59;;;17.60;50.78
46778;BME280;32536;47.128;8.746;2023-10-19T09:00:28;89965.69;;;17.68;50.71
46778;BME280;32536;47.128;8.746;2023-10-19T09:03:04;89963.00;;;17.74;50.89
46778;BME280;32536;47.128;8.746;2023-10-19T09:05:32;89968.16;;;17.77;50.80
46778;BME280;32536;47.128;8.746;2023-10-19T09:07:59;89955.88;;;17.82;50.66
46778;BME280;32536;47.128;8.746;2023-10-19T09:10:27;89943.56;;;17.81;50.81
46778;BME280;32536;47.128;8.746;2023-10-19T09:13:05;89938.13;;;17.81;50.88
46778;BME280;32536;47.128;8.746;2023-10-19T09:15:36;89936.66;;;17.86;50.86
46778;BME280;32536;47.128;8.746;2023-10-19T09:18:16;89936.16;;;17.87;50.84
46778;BME280;32536;47.128;8.746;2023-10-19T09:20:49;89939.34;;;17.91;50.56
46778;BME280;32536;47.128;8.746;2023-10-19T09:23:36;89931.50;;;17.93;50.67
46778;BME280;32536;47.128;8.746;2023-10-19T09:26:04;89930.28;;;17.95;50.65
46778;BME280;32536;47.128;8.746;2023-10-19T09:28:37;89934.47;;;17.96;50.70
46778;BME280;32536;47.128;8.746;2023-10-19T09:31:04;89926.09;;;17.99;50.71
46778;BME280;32536;47.128;8.746;2023-10-19T09:33:35;89934.47;;;18.07;50.74
46778;BME280;32536;47.128;8.746;2023-10-19T09:36:03;89925.09;;;18.14;50.56
46778;BME280;32536;47.128;8.746;2023-10-19T09:38:32;89921.41;;;18.17;50.56
46778;BME280;32536;47.128;8.746;2023-10-19T09:40:58;89913.50;;;18.24;50.56
46778;BME280;32536;47.128;8.746;2023-10-19T09:43:38;89920.41;;;18.31;50.35
46778;BME280;32536;47.128;8.746;2023-10-19T09:46:10;89920.63;;;18.39;50.66
46778;BME280;32536;47.128;8.746;2023-10-19T09:48:40;89910.78;;;18.47;50.33
46778;BME280;32536;47.128;8.746;2023-10-19T09:51:09;89899.41;;;18.49;50.42
46778;BME280;32536;47.128;8.746;2023-10-19T09:53:38;89907.06;;;18.50;50.52
46778;BME280;32536;47.128;8.746;2023-10-19T09:56:08;89911.00;;;18.55;50.49
46778;BME280;32536;47.128;8.746;2023-10-19T09:58:48;89900.13;;;18.61;50.09
46778;BME280;32536;47.128;8.746;2023-10-19T10:01:19;89891.25;;;18.66;50.42
46778;BME280;32536;47.128;8.746;2023-10-19T10:06:27;89886.78;;;18.74;50.41
46778;BME280;32536;47.128;8.746;2023-10-19T10:08:56;89884.53;;;18.78;50.48
46778;BME280;32536;47.128;8.746;2023-10-19T10:11:27;89884.06;;;18.80;50.30
46778;BME280;32536;47.128;8.746;2023-10-19T10:13:56;89890.19;;;18.86;50.11
46778;BME280;32536;47.128;8.746;2023-10-19T10:16:28;89890.94;;;18.92;49.99
46778;BME280;32536;47.128;8.746;2023-10-19T10:18:57;89893.34;;;19.01;50.00
46778;BME280;32536;47.128;8.746;2023-10-19T10:21:26;89886.69;;;19.08;50.06
46778;BME280;32536;47.128;8.746;2023-10-19T10:26:25;89887.81;;;19.24;49.90
46778;BME280;32536;47.128;8.746;2023-10-19T10:31:46;89871.97;;;19.40;49.84
46778;BME280;32536;47.128;8.746;2023-10-19T10:34:42;89866.97;;;19.44;49.73
46778;BME280;32536;47.128;8.746;2023-10-19T10:37:11;89864.78;;;19.42;49.78
46778;BME280;32536;47.128;8.746;2023-10-19T10:39:39;89867.97;;;19.41;49.96
46778;BME280;32536;47.128;8.746;2023-10-19T10:42:08;89854.38;;;19.46;49.85
46778;BME280;32536;47.128;8.746;2023-10-19T10:44:40;89851.13;;;19.54;49.47
46778;BME280;32536;47.128;8.746;2023-10-19T10:47:21;89861.19;;;19.59;49.70
46778;BME280;32536;47.128;8.746;2023-10-19T10:52:26;89853.94;;;19.73;49.30
46778;BME280;32536;47.128;8.746;2023-10-19T10:55:00;89839.59;;;19.78;49.35
46778;BME280;32536;47.128;8.746;2023-10-19T10:57:40;89849.66;;;19.83;49.39
46778;BME280;32536;47.128;8.746;2023-10-19T11:00:12;89853.88;;;19.84;49.06
46778;BME280;32536;47.128;8.746;2023-10-19T11:02:45;89846.94;;;19.89;49.36
46778;BME280;32536;47.128;8.746;2023-10-19T11:05:14;89841.50;;;19.89;49.51
46778;BME280;32536;47.128;8.746;2023-10-19T11:08:06;89834.34;;;19.86;49.78
46778;BME280;32536;47.128;8.746;2023-10-19T11:10:45;89837.84;;;19.80;49.73
46778;BME280;32536;47.128;8.746;2023-10-19T11:13:14;89845.56;;;19.71;50.08
46778;BME280;32536;47.128;8.746;2023-10-19T11:15:49;89840.41;;;19.67;49.94
46778;BME280;32536;47.128;8.746;2023-10-19T11:21:06;89839.31;;;19.45;49.96
46778;BME280;32536;47.128;8.746;2023-10-19T11:26:05;89843.22;;;19.14;50.20
46778;BME280;32536;47.128;8.746;2023-10-19T11:28:33;89838.03;;;19.10;50.14
46778;BME280;32536;47.128;8.746;2023-10-19T11:31:13;89838.56;;;19.09;50.32
46778;BME280;32536;47.128;8.746;2023-10-19T11:33:45;89839.84;;;19.02;50.34
46778;BME280;32536;47.128;8.746;2023-10-19T11:36:16;89839.13;;;18.90;50.40
46778;BME280;32536;47.128;8.746;2023-10-19T11:38:45;89834.47;;;18.79;50.66
46778;BME280;32536;47.128;8.746;2023-10-19T11:41:14;89843.91;;;18.72;50.69
46778;BME280;32536;47.128;8.746;2023-10-19T11:43:44;89838.72;;;18.69;50.69
46778;BME280;32536;47.128;8.746;2023-10-19T11:46:12;89836.75;;;18.64;50.70
46778;BME280;32536;47.128;8.746;2023-10-19T11:48:41;89837.00;;;18.60;50.74
46778;BME280;32536;47.128;8.746;2023-10-19T11:51:10;89834.84;;;18.53;50.65
46778;BME280;32536;47.128;8.746;2023-10-19T11:53:38;89836.81;;;18.47;50.80
46778;BME280;32536;47.128;8.746;2023-10-19T11:56:07;89840.03;;;18.51;50.66
46778;BME280;32536;47.128;8.746;2023-10-19T11:58:36;89831.38;;;18.58;50.79
46778;BME280;32536;47.128;8.746;2023-10-19T12:01:04;89832.34;;;18.61;50.69
46778;BME280;32536;47.128;8.746;2023-10-19T12:03:34;89829.13;;;18.68;50.57
46778;BME280;32536;47.128;8.746;2023-10-19T12:06:10;89831.31;;;18.69;50.51
46778;BME280;32536;47.128;8.746;2023-10-19T12:08:38;89831.06;;;18.73;50.56
46778;BME280;32536;47.128;8.746;2023-10-19T12:11:06;89822.16;;;18.78;50.53
46778;BME280;32536;47.128;8.746;2023-10-19T12:13:43;89817.69;;;18.81;50.39
46778;BME280;32536;47.128;8.746;2023-10-19T12:16:13;89812.50;;;18.88;50.48
46778;BME280;32536;47.128;8.746;2023-10-19T12:18:44;89820.34;;;18.98;50.31
46778;BME280;32536;47.128;8.746;2023-10-19T12:21:14;89815.94;;;18.95;50.17
46778;BME280;32536;47.128;8.746;2023-10-19T12:23:42;89811.75;;;18.94;50.44
46778;BME280;32536;47.128;8.746;2023-10-19T12:26:10;89807.53;;;18.98;50.44
46778;BME280;32536;47.128;8.746;2023-10-19T12:28:37;89810.69;;;19.08;50.38
46778;BME280;32536;47.128;8.746;2023-10-19T12:31:04;89807.66;;;19.17;50.35
46778;BME280;32536;47.128;8.746;2023-10-19T12:33:31;89804.69;;;19.21;50.14
46778;BME280;32536;47.128;8.746;2023-10-19T12:35:58;89801.69;;;19.25;50.34
46778;BME280;32536;47.128;8.746;2023-10-19T12:38:25;89810.31;;;19.29;50.24
46778;BME280;32536;47.128;8.746;2023-10-19T12:40:53;89812.97;;;19.34;50.11
46778;BME280;32536;47.128;8.746;2023-10-19T12:43:20;89807.53;;;19.40;50.14
46778;BME280;32536;47.128;8.746;2023-10-19T12:45:50;89806.00;;;19.45;50.10
46778;BME280;32536;47.128;8.746;2023-10-19T12:48:21;89800.78;;;19.47;50.03
46778;BME280;32536;47.128;8.746;2023-10-19T12:50:51;89803.03;;;19.48;50.17
46778;BME280;32536;47.128;8.746;2023-10-19T12:53:17;89802.00;;;19.51;50.08
46778;BME280;32536;47.128;8.746;2023-10-19T12:55:44;89812.84;;;19.51;50.29
46778;BME280;32536;47.128;8.746;2023-10-19T12:58:11;89810.16;;;19.51;50.12
46778;BME280;32536;47.128;8.746;2023-10-19T13:00:40;89805.94;;;19.50;50.35
46778;BME280;32536;47.128;8.746;2023-10-19T13:03:10;89798.81;;;19.47;50.48
46778;BME280;32536;47.128;8.746;2023-10-19T13:05:40;89795.34;;;19.47;50.63
46778;BME280;32536;47.128;8.746;2023-10-19T13:08:08;89796.84;;;19.48;50.39
46778;BME280;32536;47.128;8.746;2023-10-19T13:10:35;89791.38;;;19.54;50.63
46778;BME280;32536;47.128;8.746;2023-10-19T13:13:09;89779.97;;;19.61;50.57
46778;BME280;32536;47.128;8.746;2023-10-19T13:15:45;89787.09;;;19.64;50.64
46778;BME280;32536;47.128;8.746;2023-10-19T13:18:13;89779.69;;;19.64;50.50
46778;BME280;32536;47.128;8.746;2023-10-19T13:20:47;89770.28;;;19.65;50.67
46778;BME280;32536;47.128;8.746;2023-10-19T13:23:14;89762.59;;;19.70;50.38
46778;BME280;32536;47.128;8.746;2023-10-19T13:25:47;89768.03;;;19.70;50.56
46778;BME280;32536;47.128;8.746;2023-10-19T13:28:34;89760.84;;;19.72;50.46
46778;BME280;32536;47.128;8.746;2023-10-19T13:31:03;89759.09;;;19.75;50.52
46778;BME280;32536;47.128;8.746;2023-10-19T13:33:30;89764.75;;;19.77;50.57
46778;BME280;32536;47.128;8.746;2023-10-19T13:35:57;89753.84;;;19.82;50.60